Airfield :
LOGIN :

Register | Disclaimer

   EN    FR    IT 

 










Legend :    VFR   Marginal VFR   IFR   Intensive IFR   Very Intensive IFR
Visi :
Ceiling :
>= 8 km
>= 3000ft
5 to 8 km
1000 to 3000 ft
1500m to 5 km
500 to 1000 ft
800 to 1500m
200 to 500 ft
< 800m
< 200 ft
Symbols :   Thunderstorms  Fog  Heavy snow  Heavy precipitations  Wind > 20 kt
SIGMETs :     Misc.  Thunderstorms  Icing  Turbulence  Mountain Waves  Volcanic Ashes







- Airport Elevation : 313 ft
- IATA code : LEH
- Download approach charts


LFOH - Le Havre Octeville

CURRENT METAR :
  • 141830Z AUTO 25019KT 230V290 9999 BKN022/// OVC031/// ///TCU 06/03 Q0992 TEMPO 25030G50KT 1200 TSRAGS BKN013CB

EXPIRED METARs :
  • 141800Z AUTO 24017KT 9999 SCT027 SCT050 BKN060 06/03 Q0992 TEMPO 25030G50KT 1200 TSRAGS BKN013CB
  • 141730Z AUTO 23014KT 200V270 9999 SCT020/// BKN060/// BKN080/// ///CB 04/03 Q0992 TEMPO 25030G50KT 1200 TSRAGS BKN013CB
  • 141700Z AUTO 26022G37KT 240V300 9999 4200 RA SCT014/// BKN019/// BKN024/// ///CB 05/02 Q0993 TEMPO 25030G50KT 3000 SHRA BKN013CB
  • 141630Z AUTO 22016KT 9999 SCT012/// BKN110/// BKN140/// ///TCU 06/04 Q0992 TEMPO 25030G50KT 3000 SHRA BKN013CB
  • 141600Z AUTO 21016G27KT 9999 BKN016 BKN030 BKN190 06/04 Q0993 TEMPO 25030G50KT 3000 SHRA BKN013CB

TAF AMD TAF LFOH
Valid from the 14 at 17:00 until the 15 at 12:00 UTC


141711Z 1417/1512 25020G35KT 9999 BKN020
TEMPO 1417/1506 3000 SHRA BKN013CB
PROB40 1417/1506 25030G50KT 1200 TSRAGS
FM150600 22015KT 9999 BKN030
TEMPO 1506/1512 3000 SHRAGS BKN030CB
ATIS : +33 2 35 54 64 93
No reported NOTAMs for that airfield.
2 SIGMETs reported for the Paris FIR (LFFF) :
 
Embedded thunderstorms
LFFF SIGMET 12 VALID 141730/141930 LFPW
LFFF PARIS FIR/UIR EMBD TS OBS AT 1715Z WI N4900 W00015 - N5000 W00015 - N5030 E00100 - N4945 E00130 - N4900 W00015 TOP FL290 MOV ESE 30KT NC=
Severe turbulence
LFFF SIGMET 11 VALID 141700/142000 LFPW
LFFF PARIS FIR/UIR SEV TURB OBS AT 1700Z S OF N4745 FL160/300 STNR NC=



MET'MAP, your aeronautical weather chart ! - Copyright ORBIFLY December 2007 - Disclaimer

ORBIFLY MET'MAP TEAM :

Programming & Development : Alexandra Zaïnal
Concept & Development : Baudouin d'Aumeries
Co-Development & Prog : Marc-Olivier Méhu
Technical & hardware support : Manuel Goepfert

Contact : metmap@orbifly.com




SOURCES & CREDITS :

   NOAA